sensor_id;sensor_type;location;lat;lon;timestamp;noise_LAeq;noise_LA_min;noise_LA_max;noise_LA01;noise_LA95
74214;Laerm;62576;55.694;37.494;2022-10-31T00:02:02;64.34;55.01;84.29;;
74214;Laerm;62576;55.694;37.494;2022-10-31T00:04:32;60.90;54.76;83.96;;
74214;Laerm;62576;55.694;37.494;2022-10-31T00:07:02;65.60;55.19;89.36;;
74214;Laerm;62576;55.694;37.494;2022-10-31T00:09:32;60.31;54.98;81.58;;
74214;Laerm;62576;55.694;37.494;2022-10-31T00:12:03;61.40;55.43;79.20;;
74214;Laerm;62576;55.694;37.494;2022-10-31T00:14:33;67.38;55.41;86.69;;
74214;Laerm;62576;55.694;37.494;2022-10-31T00:17:03;60.71;55.55;81.06;;
74214;Laerm;62576;55.694;37.494;2022-10-31T00:19:33;69.09;56.26;91.19;;
74214;Laerm;62576;55.694;37.494;2022-10-31T00:22:03;62.35;55.41;84.42;;
74214;Laerm;62576;55.694;37.494;2022-10-31T00:24:33;64.79;55.39;86.62;;
74214;Laerm;62576;55.694;37.494;2022-10-31T00:27:05;64.11;54.84;83.80;;
74214;Laerm;62576;55.694;37.494;2022-10-31T00:29:35;66.81;55.80;88.88;;
74214;Laerm;62576;55.694;37.494;2022-10-31T00:32:05;66.41;54.61;90.08;;
74214;Laerm;62576;55.694;37.494;2022-10-31T00:34:35;62.36;55.30;84.63;;
74214;Laerm;62576;55.694;37.494;2022-10-31T00:37:04;60.85;55.51;78.15;;
74214;Laerm;62576;55.694;37.494;2022-10-31T00:39:31;62.83;54.94;83.48;;
74214;Laerm;62576;55.694;37.494;2022-10-31T00:42:01;65.46;54.99;85.55;;
74214;Laerm;62576;55.694;37.494;2022-10-31T00:44:33;65.77;55.30;86.85;;
74214;Laerm;62576;55.694;37.494;2022-10-31T00:47:03;63.55;55.57;80.24;;
74214;Laerm;62576;55.694;37.494;2022-10-31T00:49:33;59.39;54.80;74.77;;
74214;Laerm;62576;55.694;37.494;2022-10-31T00:52:02;63.57;55.02;84.39;;
74214;Laerm;62576;55.694;37.494;2022-10-31T00:54:32;61.34;54.48;82.12;;
74214;Laerm;62576;55.694;37.494;2022-10-31T00:57:02;64.39;54.83;85.68;;
74214;Laerm;62576;55.694;37.494;2022-10-31T00:59:34;60.25;54.42;77.58;;
74214;Laerm;62576;55.694;37.494;2022-10-31T01:02:03;67.05;56.22;85.45;;
74214;Laerm;62576;55.694;37.494;2022-10-31T01:04:33;62.23;54.78;82.74;;
74214;Laerm;62576;55.694;37.494;2022-10-31T01:07:04;62.90;55.03;87.18;;
74214;Laerm;62576;55.694;37.494;2022-10-31T01:09:34;59.66;54.84;78.34;;
74214;Laerm;62576;55.694;37.494;2022-10-31T01:12:04;66.39;54.86;88.21;;
74214;Laerm;62576;55.694;37.494;2022-10-31T01:14:41;63.90;55.38;85.52;;
74214;Laerm;62576;55.694;37.494;2022-10-31T01:17:15;59.29;54.71;77.33;;
74214;Laerm;62576;55.694;37.494;2022-10-31T01:19:46;58.54;54.75;73.10;;
74214;Laerm;62576;55.694;37.494;2022-10-31T01:22:16;67.00;55.57;86.43;;
74214;Laerm;62576;55.694;37.494;2022-10-31T01:24:46;60.84;55.25;79.97;;
74214;Laerm;62576;55.694;37.494;2022-10-31T01:27:16;64.08;54.91;83.88;;
74214;Laerm;62576;55.694;37.494;2022-10-31T01:29:48;60.46;54.35;76.55;;
74214;Laerm;62576;55.694;37.494;2022-10-31T01:32:18;63.40;55.12;89.25;;
74214;Laerm;62576;55.694;37.494;2022-10-31T01:34:48;64.43;55.09;84.88;;
74214;Laerm;62576;55.694;37.494;2022-10-31T01:37:18;61.68;55.52;82.10;;
74214;Laerm;62576;55.694;37.494;2022-10-31T01:39:45;62.56;54.98;81.24;;
74214;Laerm;62576;55.694;37.494;2022-10-31T01:42:18;70.56;54.65;92.62;;
74214;Laerm;62576;55.694;37.494;2022-10-31T01:44:59;63.13;54.83;87.42;;
74214;Laerm;62576;55.694;37.494;2022-10-31T01:47:34;61.30;55.28;80.33;;
74214;Laerm;62576;55.694;37.494;2022-10-31T01:50:12;61.22;55.31;79.70;;
74214;Laerm;62576;55.694;37.494;2022-10-31T01:52:45;60.36;55.55;77.98;;
74214;Laerm;62576;55.694;37.494;2022-10-31T01:55:20;60.65;54.84;77.86;;
74214;Laerm;62576;55.694;37.494;2022-10-31T01:57:54;60.01;55.68;72.76;;
74214;Laerm;62576;55.694;37.494;2022-10-31T02:00:26;65.49;55.26;86.01;;
74214;Laerm;62576;55.694;37.494;2022-10-31T02:02:56;63.10;55.08;83.54;;
74214;Laerm;62576;55.694;37.494;2022-10-31T02:05:29;65.19;56.32;84.84;;
74214;Laerm;62576;55.694;37.494;2022-10-31T02:07:58;65.77;54.65;85.97;;
74214;Laerm;62576;55.694;37.494;2022-10-31T02:10:33;59.30;55.43;75.68;;
74214;Laerm;62576;55.694;37.494;2022-10-31T02:13:06;60.52;55.03;77.69;;
74214;Laerm;62576;55.694;37.494;2022-10-31T02:15:39;63.38;54.71;87.05;;
74214;Laerm;62576;55.694;37.494;2022-10-31T02:18:09;64.05;55.19;81.68;;
74214;Laerm;62576;55.694;37.494;2022-10-31T02:20:45;61.49;55.16;78.80;;
74214;Laerm;62576;55.694;37.494;2022-10-31T02:23:45;65.32;56.05;87.34;;
74214;Laerm;62576;55.694;37.494;2022-10-31T02:26:43;63.65;55.42;79.81;;
74214;Laerm;62576;55.694;37.494;2022-10-31T02:32:30;63.42;55.19;83.34;;
74214;Laerm;62576;55.694;37.494;2022-10-31T02:35:09;60.50;54.90;80.07;;
74214;Laerm;62576;55.694;37.494;2022-10-31T02:37:47;62.88;55.26;80.76;;
74214;Laerm;62576;55.694;37.494;2022-10-31T02:40:22;62.29;56.65;79.20;;
74214;Laerm;62576;55.694;37.494;2022-10-31T02:43:00;61.44;56.38;70.17;;
74214;Laerm;62576;55.694;37.494;2022-10-31T02:45:35;60.46;55.88;71.19;;
74214;Laerm;62576;55.694;37.494;2022-10-31T02:48:16;61.86;55.68;73.06;;
74214;Laerm;62576;55.694;37.494;2022-10-31T02:50:52;61.95;55.12;77.87;;
74214;Laerm;62576;55.694;37.494;2022-10-31T02:53:23;61.50;55.09;74.11;;
74214;Laerm;62576;55.694;37.494;2022-10-31T02:56:09;61.70;56.17;80.36;;
74214;Laerm;62576;55.694;37.494;2022-10-31T02:58:45;63.41;55.55;80.18;;
74214;Laerm;62576;55.694;37.494;2022-10-31T03:01:38;62.29;55.77;69.78;;
74214;Laerm;62576;55.694;37.494;2022-10-31T03:04:37;62.12;56.04;85.47;;
74214;Laerm;62576;55.694;37.494;2022-10-31T03:07:17;63.02;55.83;74.33;;
74214;Laerm;62576;55.694;37.494;2022-10-31T03:09:56;64.86;55.57;85.57;;
74214;Laerm;62576;55.694;37.494;2022-10-31T03:12:37;63.33;56.24;85.44;;
74214;Laerm;62576;55.694;37.494;2022-10-31T03:15:13;63.40;57.32;86.64;;
74214;Laerm;62576;55.694;37.494;2022-10-31T03:17:52;65.02;59.15;84.57;;
74214;Laerm;62576;55.694;37.494;2022-10-31T03:20:28;63.20;56.98;69.08;;
74214;Laerm;62576;55.694;37.494;2022-10-31T03:23:01;65.82;56.23;84.52;;
74214;Laerm;62576;55.694;37.494;2022-10-31T03:25:32;65.67;56.53;85.60;;
74214;Laerm;62576;55.694;37.494;2022-10-31T03:28:05;66.35;57.76;82.94;;
74214;Laerm;62576;55.694;37.494;2022-10-31T03:30:37;67.91;56.46;88.97;;
74214;Laerm;62576;55.694;37.494;2022-10-31T03:33:08;67.04;59.18;85.72;;
74214;Laerm;62576;55.694;37.494;2022-10-31T03:35:44;64.40;57.04;70.00;;
74214;Laerm;62576;55.694;37.494;2022-10-31T03:38:14;65.76;57.63;85.83;;
74214;Laerm;62576;55.694;37.494;2022-10-31T03:40:46;66.69;58.07;83.71;;
74214;Laerm;62576;55.694;37.494;2022-10-31T03:43:21;66.92;56.46;89.62;;
74214;Laerm;62576;55.694;37.494;2022-10-31T03:45:53;68.23;58.11;88.36;;
74214;Laerm;62576;55.694;37.494;2022-10-31T03:48:24;65.29;56.77;81.47;;
74214;Laerm;62576;55.694;37.494;2022-10-31T03:51:00;66.72;59.45;84.92;;
74214;Laerm;62576;55.694;37.494;2022-10-31T03:53:37;67.41;60.35;90.29;;
74214;Laerm;62576;55.694;37.494;2022-10-31T03:56:12;64.38;58.58;72.33;;
74214;Laerm;62576;55.694;37.494;2022-10-31T03:58:54;68.67;61.57;86.33;;
74214;Laerm;62576;55.694;37.494;2022-10-31T04:01:30;67.47;59.69;89.39;;
74214;Laerm;62576;55.694;37.494;2022-10-31T04:04:02;67.31;60.90;80.61;;
74214;Laerm;62576;55.694;37.494;2022-10-31T04:06:34;67.30;60.97;82.59;;
74214;Laerm;62576;55.694;37.494;2022-10-31T04:09:07;66.49;59.50;86.35;;
74214;Laerm;62576;55.694;37.494;2022-10-31T04:11:42;72.69;59.05;92.51;;
74214;Laerm;62576;55.694;37.494;2022-10-31T04:14:14;67.14;60.45;80.98;;
74214;Laerm;62576;55.694;37.494;2022-10-31T04:16:44;67.98;58.76;90.36;;
74214;Laerm;62576;55.694;37.494;2022-10-31T04:19:15;69.45;60.38;85.08;;
74214;Laerm;62576;55.694;37.494;2022-10-31T04:21:46;68.26;61.81;82.87;;
74214;Laerm;62576;55.694;37.494;2022-10-31T04:24:16;69.58;61.61;89.81;;
74214;Laerm;62576;55.694;37.494;2022-10-31T04:26:46;68.50;60.46;84.52;;
74214;Laerm;62576;55.694;37.494;2022-10-31T04:29:18;67.06;62.47;73.79;;
74214;Laerm;62576;55.694;37.494;2022-10-31T04:31:48;68.57;62.70;79.91;;
74214;Laerm;62576;55.694;37.494;2022-10-31T04:34:18;68.76;64.40;74.73;;
74214;Laerm;62576;55.694;37.494;2022-10-31T04:36:49;68.43;63.44;79.90;;
74214;Laerm;62576;55.694;37.494;2022-10-31T04:39:19;69.35;63.18;83.18;;
74214;Laerm;62576;55.694;37.494;2022-10-31T04:41:49;69.61;62.16;87.36;;
74214;Laerm;62576;55.694;37.494;2022-10-31T04:44:19;69.28;64.19;77.06;;
74214;Laerm;62576;55.694;37.494;2022-10-31T04:46:48;68.68;61.51;80.96;;
74214;Laerm;62576;55.694;37.494;2022-10-31T04:49:21;69.31;64.71;80.59;;
74214;Laerm;62576;55.694;37.494;2022-10-31T04:51:52;69.06;63.06;80.72;;
74214;Laerm;62576;55.694;37.494;2022-10-31T04:54:22;69.72;61.69;83.30;;
74214;Laerm;62576;55.694;37.494;2022-10-31T04:56:52;69.37;63.32;86.20;;
74214;Laerm;62576;55.694;37.494;2022-10-31T04:59:22;69.53;65.34;77.14;;
74214;Laerm;62576;55.694;37.494;2022-10-31T05:01:52;69.83;64.03;82.67;;
74214;Laerm;62576;55.694;37.494;2022-10-31T05:04:22;68.91;64.42;86.13;;
74214;Laerm;62576;55.694;37.494;2022-10-31T05:06:54;69.40;65.71;78.77;;
74214;Laerm;62576;55.694;37.494;2022-10-31T05:09:24;69.69;63.66;82.26;;
74214;Laerm;62576;55.694;37.494;2022-10-31T05:11:54;69.43;64.23;73.91;;
74214;Laerm;62576;55.694;37.494;2022-10-31T05:14:26;68.95;63.80;72.62;;
74214;Laerm;62576;55.694;37.494;2022-10-31T05:16:56;69.73;66.26;79.06;;
74214;Laerm;62576;55.694;37.494;2022-10-31T05:19:26;69.69;64.94;75.29;;
74214;Laerm;62576;55.694;37.494;2022-10-31T05:21:57;69.34;65.18;74.35;;
74214;Laerm;62576;55.694;37.494;2022-10-31T05:24:27;68.69;64.92;76.06;;
74214;Laerm;62576;55.694;37.494;2022-10-31T05:26:57;68.95;63.50;74.18;;
74214;Laerm;62576;55.694;37.494;2022-10-31T05:29:27;69.66;63.80;82.03;;
74214;Laerm;62576;55.694;37.494;2022-10-31T05:32:01;69.69;64.48;78.06;;
74214;Laerm;62576;55.694;37.494;2022-10-31T05:34:31;69.63;64.21;74.14;;
74214;Laerm;62576;55.694;37.494;2022-10-31T05:37:02;70.58;65.01;88.00;;
74214;Laerm;62576;55.694;37.494;2022-10-31T05:39:30;70.78;65.96;81.93;;
74214;Laerm;62576;55.694;37.494;2022-10-31T05:42:00;69.48;63.63;74.54;;
74214;Laerm;62576;55.694;37.494;2022-10-31T05:44:30;69.89;63.27;74.45;;
74214;Laerm;62576;55.694;37.494;2022-10-31T05:47:00;69.22;64.45;74.10;;
74214;Laerm;62576;55.694;37.494;2022-10-31T05:49:30;70.11;66.02;77.44;;
74214;Laerm;62576;55.694;37.494;2022-10-31T05:52:05;70.53;65.43;90.41;;
74214;Laerm;62576;55.694;37.494;2022-10-31T05:54:35;70.11;66.66;78.91;;
74214;Laerm;62576;55.694;37.494;2022-10-31T05:57:05;69.76;59.90;88.54;;
74214;Laerm;62576;55.694;37.494;2022-10-31T05:59:35;69.83;64.42;79.77;;
74214;Laerm;62576;55.694;37.494;2022-10-31T06:02:05;69.09;64.26;73.47;;
74214;Laerm;62576;55.694;37.494;2022-10-31T06:04:35;69.96;64.73;75.04;;
74214;Laerm;62576;55.694;37.494;2022-10-31T06:07:07;69.62;64.55;76.99;;
74214;Laerm;62576;55.694;37.494;2022-10-31T06:09:37;69.70;63.73;73.59;;
74214;Laerm;62576;55.694;37.494;2022-10-31T06:12:07;69.74;63.17;73.31;;
74214;Laerm;62576;55.694;37.494;2022-10-31T06:14:37;69.52;64.91;79.76;;
74214;Laerm;62576;55.694;37.494;2022-10-31T06:17:07;69.63;63.46;73.38;;
74214;Laerm;62576;55.694;37.494;2022-10-31T06:19:37;69.36;65.01;76.64;;
74214;Laerm;62576;55.694;37.494;2022-10-31T06:22:08;69.70;63.00;81.72;;
74214;Laerm;62576;55.694;37.494;2022-10-31T06:24:39;69.79;63.77;79.46;;
74214;Laerm;62576;55.694;37.494;2022-10-31T06:27:10;69.92;64.17;82.57;;
74214;Laerm;62576;55.694;37.494;2022-10-31T06:29:40;68.96;62.27;75.26;;
74214;Laerm;62576;55.694;37.494;2022-10-31T06:32:12;69.17;64.13;74.34;;
74214;Laerm;62576;55.694;37.494;2022-10-31T06:34:43;69.78;63.33;76.28;;
74214;Laerm;62576;55.694;37.494;2022-10-31T06:37:17;69.76;64.65;75.14;;
74214;Laerm;62576;55.694;37.494;2022-10-31T06:39:44;69.58;64.74;73.91;;
74214;Laerm;62576;55.694;37.494;2022-10-31T06:42:15;69.34;65.00;77.49;;
74214;Laerm;62576;55.694;37.494;2022-10-31T06:44:45;69.57;64.70;76.44;;
74214;Laerm;62576;55.694;37.494;2022-10-31T06:47:17;71.17;65.90;76.91;;
74214;Laerm;62576;55.694;37.494;2022-10-31T06:49:47;69.98;63.47;77.57;;
74214;Laerm;62576;55.694;37.494;2022-10-31T06:52:19;69.89;60.25;81.19;;
74214;Laerm;62576;55.694;37.494;2022-10-31T06:54:49;69.37;64.15;74.95;;
74214;Laerm;62576;55.694;37.494;2022-10-31T06:57:20;69.18;63.01;79.34;;
74214;Laerm;62576;55.694;37.494;2022-10-31T06:59:50;69.24;63.19;75.68;;
74214;Laerm;62576;55.694;37.494;2022-10-31T07:02:20;69.38;62.61;80.19;;
74214;Laerm;62576;55.694;37.494;2022-10-31T07:04:50;69.63;64.82;78.84;;
74214;Laerm;62576;55.694;37.494;2022-10-31T07:07:21;70.37;63.98;82.62;;
74214;Laerm;62576;55.694;37.494;2022-10-31T07:09:51;69.60;64.73;78.23;;
74214;Laerm;62576;55.694;37.494;2022-10-31T07:12:21;69.70;63.85;74.11;;
74214;Laerm;62576;55.694;37.494;2022-10-31T07:14:51;69.35;63.47;74.68;;
74214;Laerm;62576;55.694;37.494;2022-10-31T07:17:23;69.52;63.08;84.27;;
74214;Laerm;62576;55.694;37.494;2022-10-31T07:19:54;68.93;62.07;76.03;;
74214;Laerm;62576;55.694;37.494;2022-10-31T07:22:34;70.24;64.94;74.17;;
74214;Laerm;62576;55.694;37.494;2022-10-31T07:25:05;70.37;62.36;78.06;;
74214;Laerm;62576;55.694;37.494;2022-10-31T07:27:36;69.18;63.89;73.96;;
74214;Laerm;62576;55.694;37.494;2022-10-31T07:30:07;69.92;62.77;88.82;;
74214;Laerm;62576;55.694;37.494;2022-10-31T07:32:39;68.93;63.93;75.00;;
74214;Laerm;62576;55.694;37.494;2022-10-31T07:35:12;69.32;63.43;81.74;;
74214;Laerm;62576;55.694;37.494;2022-10-31T07:37:43;70.26;65.31;75.12;;
74214;Laerm;62576;55.694;37.494;2022-10-31T07:40:11;70.21;63.88;82.35;;
74214;Laerm;62576;55.694;37.494;2022-10-31T07:42:43;70.12;63.93;74.61;;
74214;Laerm;62576;55.694;37.494;2022-10-31T07:45:16;69.82;63.69;80.60;;
74214;Laerm;62576;55.694;37.494;2022-10-31T07:47:48;68.98;62.57;85.27;;
74214;Laerm;62576;55.694;37.494;2022-10-31T07:50:20;69.91;62.39;84.08;;
74214;Laerm;62576;55.694;37.494;2022-10-31T07:53:09;69.69;61.89;83.29;;
74214;Laerm;62576;55.694;37.494;2022-10-31T07:55:40;68.93;63.33;75.34;;
74214;Laerm;62576;55.694;37.494;2022-10-31T07:58:13;69.43;63.70;82.35;;
74214;Laerm;62576;55.694;37.494;2022-10-31T08:00:44;69.57;63.41;87.06;;
74214;Laerm;62576;55.694;37.494;2022-10-31T08:03:15;68.54;63.98;74.82;;
74214;Laerm;62576;55.694;37.494;2022-10-31T08:05:46;69.11;64.38;81.29;;
74214;Laerm;62576;55.694;37.494;2022-10-31T08:08:17;69.86;64.44;85.87;;
74214;Laerm;62576;55.694;37.494;2022-10-31T08:10:47;69.51;65.48;83.70;;
74214;Laerm;62576;55.694;37.494;2022-10-31T08:13:23;69.31;61.89;79.84;;
74214;Laerm;62576;55.694;37.494;2022-10-31T08:15:54;68.75;64.72;75.17;;
74214;Laerm;62576;55.694;37.494;2022-10-31T08:18:21;69.47;61.18;76.30;;
74214;Laerm;62576;55.694;37.494;2022-10-31T08:20:53;71.20;64.92;86.09;;
74214;Laerm;62576;55.694;37.494;2022-10-31T08:23:24;68.37;62.19;80.94;;
74214;Laerm;62576;55.694;37.494;2022-10-31T08:25:54;69.32;60.98;84.48;;
74214;Laerm;62576;55.694;37.494;2022-10-31T08:28:24;70.51;59.95;86.22;;
74214;Laerm;62576;55.694;37.494;2022-10-31T08:30:54;69.21;62.26;85.50;;
74214;Laerm;62576;55.694;37.494;2022-10-31T08:33:24;69.36;60.66;80.44;;
74214;Laerm;62576;55.694;37.494;2022-10-31T08:35:54;70.79;61.95;94.78;;
74214;Laerm;62576;55.694;37.494;2022-10-31T08:38:25;69.60;63.72;79.44;;
74214;Laerm;62576;55.694;37.494;2022-10-31T08:40:56;68.83;62.38;85.21;;
74214;Laerm;62576;55.694;37.494;2022-10-31T08:43:25;69.03;61.16;76.05;;
74214;Laerm;62576;55.694;37.494;2022-10-31T08:45:56;68.12;61.54;75.96;;
74214;Laerm;62576;55.694;37.494;2022-10-31T08:48:26;69.34;64.12;84.21;;
74214;Laerm;62576;55.694;37.494;2022-10-31T08:50:59;69.06;62.10;77.75;;
74214;Laerm;62576;55.694;37.494;2022-10-31T08:53:30;69.70;62.23;86.32;;
74214;Laerm;62576;55.694;37.494;2022-10-31T08:56:01;70.75;63.76;94.55;;
74214;Laerm;62576;55.694;37.494;2022-10-31T08:58:31;68.33;62.06;78.94;;
74214;Laerm;62576;55.694;37.494;2022-10-31T09:01:02;69.07;60.93;80.44;;
74214;Laerm;62576;55.694;37.494;2022-10-31T09:03:32;68.43;62.81;79.05;;
74214;Laerm;62576;55.694;37.494;2022-10-31T09:06:03;69.20;61.17;86.50;;
74214;Laerm;62576;55.694;37.494;2022-10-31T09:08:38;68.41;61.18;81.45;;
74214;Laerm;62576;55.694;37.494;2022-10-31T09:11:08;68.32;59.85;79.85;;
74214;Laerm;62576;55.694;37.494;2022-10-31T09:13:39;68.31;60.77;73.13;;
74214;Laerm;62576;55.694;37.494;2022-10-31T09:16:09;68.60;63.56;74.74;;
74214;Laerm;62576;55.694;37.494;2022-10-31T09:18:39;67.39;60.66;74.35;;
74214;Laerm;62576;55.694;37.494;2022-10-31T09:21:11;68.14;61.96;73.59;;
74214;Laerm;62576;55.694;37.494;2022-10-31T09:23:43;68.18;62.96;72.39;;
74214;Laerm;62576;55.694;37.494;2022-10-31T09:26:13;68.29;62.79;76.85;;
74214;Laerm;62576;55.694;37.494;2022-10-31T09:28:44;67.60;62.63;72.36;;
74214;Laerm;62576;55.694;37.494;2022-10-31T09:31:15;67.68;61.12;72.95;;
74214;Laerm;62576;55.694;37.494;2022-10-31T09:33:48;66.87;60.94;71.76;;
74214;Laerm;62576;55.694;37.494;2022-10-31T09:36:19;67.37;60.09;73.58;;
74214;Laerm;62576;55.694;37.494;2022-10-31T09:38:54;68.52;61.73;72.79;;
74214;Laerm;62576;55.694;37.494;2022-10-31T09:41:28;69.62;59.18;87.44;;
74214;Laerm;62576;55.694;37.494;2022-10-31T09:44:04;68.49;60.58;75.55;;
74214;Laerm;62576;55.694;37.494;2022-10-31T09:46:55;67.66;60.85;76.90;;
74214;Laerm;62576;55.694;37.494;2022-10-31T09:49:39;67.45;61.55;82.74;;
74214;Laerm;62576;55.694;37.494;2022-10-31T09:52:18;68.14;60.76;83.35;;
74214;Laerm;62576;55.694;37.494;2022-10-31T09:54:53;68.02;62.04;78.68;;
74214;Laerm;62576;55.694;37.494;2022-10-31T09:57:27;67.84;62.36;84.68;;
74214;Laerm;62576;55.694;37.494;2022-10-31T09:59:59;68.67;62.10;84.11;;
74214;Laerm;62576;55.694;37.494;2022-10-31T10:02:39;69.11;62.73;80.80;;
74214;Laerm;62576;55.694;37.494;2022-10-31T10:05:13;68.47;61.54;83.00;;
74214;Laerm;62576;55.694;37.494;2022-10-31T10:07:51;68.31;61.98;83.20;;
74214;Laerm;62576;55.694;37.494;2022-10-31T10:10:30;70.75;61.83;88.28;;
74214;Laerm;62576;55.694;37.494;2022-10-31T10:13:17;70.28;60.69;96.03;;
74214;Laerm;62576;55.694;37.494;2022-10-31T10:18:57;68.18;58.92;78.67;;
74214;Laerm;62576;55.694;37.494;2022-10-31T10:21:38;67.72;61.11;73.64;;
74214;Laerm;62576;55.694;37.494;2022-10-31T10:24:20;68.46;61.46;80.46;;
74214;Laerm;62576;55.694;37.494;2022-10-31T10:27:01;68.16;61.91;81.45;;
74214;Laerm;62576;55.694;37.494;2022-10-31T10:29:42;68.30;63.47;87.41;;
74214;Laerm;62576;55.694;37.494;2022-10-31T10:32:24;68.07;62.17;78.52;;
74214;Laerm;62576;55.694;37.494;2022-10-31T10:34:59;71.92;63.43;89.90;;
74214;Laerm;62576;55.694;37.494;2022-10-31T10:37:38;69.67;61.32;86.15;;
74214;Laerm;62576;55.694;37.494;2022-10-31T10:40:15;70.41;62.03;90.70;;
74214;Laerm;62576;55.694;37.494;2022-10-31T10:43:08;68.41;61.58;83.76;;
74214;Laerm;62576;55.694;37.494;2022-10-31T10:45:53;68.94;61.35;87.94;;
74214;Laerm;62576;55.694;37.494;2022-10-31T10:48:46;70.70;62.48;90.46;;
74214;Laerm;62576;55.694;37.494;2022-10-31T10:51:23;69.40;64.04;83.05;;
74214;Laerm;62576;55.694;37.494;2022-10-31T10:54:06;68.70;63.00;80.34;;
74214;Laerm;62576;55.694;37.494;2022-10-31T10:56:52;69.19;63.45;88.38;;
74214;Laerm;62576;55.694;37.494;2022-10-31T10:59:26;70.06;63.13;84.72;;
74214;Laerm;62576;55.694;37.494;2022-10-31T11:01:58;70.19;62.79;84.31;;
74214;Laerm;62576;55.694;37.494;2022-10-31T11:04:33;68.09;61.62;80.32;;
74214;Laerm;62576;55.694;37.494;2022-10-31T11:07:06;67.32;59.42;74.65;;
74214;Laerm;62576;55.694;37.494;2022-10-31T11:09:37;67.74;62.52;75.34;;
74214;Laerm;62576;55.694;37.494;2022-10-31T11:12:08;71.76;62.01;92.72;;
74214;Laerm;62576;55.694;37.494;2022-10-31T11:14:46;69.25;61.12;84.31;;
74214;Laerm;62576;55.694;37.494;2022-10-31T11:17:26;67.91;59.82;80.64;;
74214;Laerm;62576;55.694;37.494;2022-10-31T11:20:03;68.77;61.68;84.21;;
74214;Laerm;62576;55.694;37.494;2022-10-31T11:22:34;68.10;62.16;84.37;;
74214;Laerm;62576;55.694;37.494;2022-10-31T11:25:20;73.10;63.31;93.58;;
74214;Laerm;62576;55.694;37.494;2022-10-31T11:27:59;68.71;63.43;73.87;;
74214;Laerm;62576;55.694;37.494;2022-10-31T11:30:35;68.59;61.45;80.57;;
74214;Laerm;62576;55.694;37.494;2022-10-31T11:33:17;68.71;62.37;79.53;;
74214;Laerm;62576;55.694;37.494;2022-10-31T11:35:48;68.83;62.09;75.78;;
74214;Laerm;62576;55.694;37.494;2022-10-31T11:38:20;68.80;62.70;80.79;;
74214;Laerm;62576;55.694;37.494;2022-10-31T11:40:54;69.40;59.40;88.56;;
74214;Laerm;62576;55.694;37.494;2022-10-31T11:43:25;71.48;60.66;88.40;;
74214;Laerm;62576;55.694;37.494;2022-10-31T11:45:58;68.78;62.25;85.52;;
74214;Laerm;62576;55.694;37.494;2022-10-31T11:48:28;67.76;61.80;72.42;;
74214;Laerm;62576;55.694;37.494;2022-10-31T11:50:59;69.20;63.36;88.10;;
74214;Laerm;62576;55.694;37.494;2022-10-31T11:53:32;69.60;64.04;83.06;;
74214;Laerm;62576;55.694;37.494;2022-10-31T11:56:10;69.67;62.96;77.99;;
74214;Laerm;62576;55.694;37.494;2022-10-31T11:58:54;69.33;63.62;85.39;;
74214;Laerm;62576;55.694;37.494;2022-10-31T12:01:29;68.48;61.03;78.91;;
74214;Laerm;62576;55.694;37.494;2022-10-31T12:04:06;69.52;61.36;88.80;;
74214;Laerm;62576;55.694;37.494;2022-10-31T12:06:38;70.18;61.30;91.67;;
74214;Laerm;62576;55.694;37.494;2022-10-31T12:09:18;69.50;61.87;86.00;;
74214;Laerm;62576;55.694;37.494;2022-10-31T12:12:03;68.98;62.07;78.13;;
74214;Laerm;62576;55.694;37.494;2022-10-31T12:14:44;69.65;62.42;86.38;;
74214;Laerm;62576;55.694;37.494;2022-10-31T12:17:20;69.21;62.55;83.13;;
74214;Laerm;62576;55.694;37.494;2022-10-31T12:20:00;71.33;61.95;91.83;;
74214;Laerm;62576;55.694;37.494;2022-10-31T12:22:40;69.36;62.68;84.21;;
74214;Laerm;62576;55.694;37.494;2022-10-31T12:25:30;70.91;60.58;93.21;;
74214;Laerm;62576;55.694;37.494;2022-10-31T12:28:35;71.28;60.65;94.68;;
74214;Laerm;62576;55.694;37.494;2022-10-31T12:31:19;69.29;62.66;77.52;;
74214;Laerm;62576;55.694;37.494;2022-10-31T12:33:55;68.27;61.23;81.09;;
74214;Laerm;62576;55.694;37.494;2022-10-31T12:36:45;68.65;60.60;82.87;;
74214;Laerm;62576;55.694;37.494;2022-10-31T12:39:24;69.52;61.17;88.80;;
74214;Laerm;62576;55.694;37.494;2022-10-31T12:42:02;68.57;60.62;83.39;;
74214;Laerm;62576;55.694;37.494;2022-10-31T12:47:44;69.15;62.10;85.77;;
74214;Laerm;62576;55.694;37.494;2022-10-31T12:50:31;68.43;61.11;78.73;;
74214;Laerm;62576;55.694;37.494;2022-10-31T12:53:15;69.16;61.17;77.63;;
74214;Laerm;62576;55.694;37.494;2022-10-31T12:55:58;69.30;60.59;80.95;;
74214;Laerm;62576;55.694;37.494;2022-10-31T12:58:35;68.77;61.49;79.57;;
74214;Laerm;62576;55.694;37.494;2022-10-31T13:01:10;68.41;60.25;74.21;;
74214;Laerm;62576;55.694;37.494;2022-10-31T13:03:48;69.43;62.81;84.11;;
74214;Laerm;62576;55.694;37.494;2022-10-31T13:06:24;68.46;62.73;77.51;;
74214;Laerm;62576;55.694;37.494;2022-10-31T13:09:00;68.99;61.91;79.79;;
74214;Laerm;62576;55.694;37.494;2022-10-31T13:11:35;68.72;61.73;87.23;;
74214;Laerm;62576;55.694;37.494;2022-10-31T13:14:15;70.59;60.78;85.09;;
74214;Laerm;62576;55.694;37.494;2022-10-31T13:16:51;70.00;61.45;91.08;;
74214;Laerm;62576;55.694;37.494;2022-10-31T13:19:24;70.09;61.62;88.42;;
74214;Laerm;62576;55.694;37.494;2022-10-31T13:21:59;69.40;61.50;82.88;;
74214;Laerm;62576;55.694;37.494;2022-10-31T13:24:34;69.80;62.03;87.43;;
74214;Laerm;62576;55.694;37.494;2022-10-31T13:27:13;68.90;61.50;78.24;;
74214;Laerm;62576;55.694;37.494;2022-10-31T13:29:54;70.28;59.88;88.33;;
74214;Laerm;62576;55.694;37.494;2022-10-31T13:32:30;69.59;62.25;82.41;;
74214;Laerm;62576;55.694;37.494;2022-10-31T13:35:13;69.77;60.58;86.59;;
74214;Laerm;62576;55.694;37.494;2022-10-31T13:37:53;69.60;61.62;84.50;;
74214;Laerm;62576;55.694;37.494;2022-10-31T13:40:35;69.00;61.41;81.71;;
74214;Laerm;62576;55.694;37.494;2022-10-31T13:43:19;69.74;60.07;85.78;;
74214;Laerm;62576;55.694;37.494;2022-10-31T13:45:53;69.88;59.96;88.12;;
74214;Laerm;62576;55.694;37.494;2022-10-31T13:48:39;70.64;62.29;88.13;;
74214;Laerm;62576;55.694;37.494;2022-10-31T13:51:11;69.19;61.21;84.11;;
74214;Laerm;62576;55.694;37.494;2022-10-31T13:53:45;69.46;62.13;87.05;;
74214;Laerm;62576;55.694;37.494;2022-10-31T13:56:27;70.25;59.71;87.69;;
74214;Laerm;62576;55.694;37.494;2022-10-31T13:59:03;70.27;59.05;91.61;;
74214;Laerm;62576;55.694;37.494;2022-10-31T14:01:35;68.44;61.16;79.80;;
74214;Laerm;62576;55.694;37.494;2022-10-31T14:04:07;73.57;62.49;93.49;;
74214;Laerm;62576;55.694;37.494;2022-10-31T14:06:47;72.54;60.85;93.33;;
74214;Laerm;62576;55.694;37.494;2022-10-31T14:09:26;69.38;60.52;82.16;;
74214;Laerm;62576;55.694;37.494;2022-10-31T14:12:01;74.20;61.63;96.17;;
74214;Laerm;62576;55.694;37.494;2022-10-31T14:14:43;70.32;62.69;87.34;;
74214;Laerm;62576;55.694;37.494;2022-10-31T14:17:23;74.30;63.00;94.67;;
74214;Laerm;62576;55.694;37.494;2022-10-31T14:23:37;72.71;62.32;94.85;;